Time;durP1;ratioP1;P1;durP2;ratioP2;P2;SDS_P1;SDS_P2;PMS_P1;PMS_P2;Temp;Humidity;BMP_temperature;BMP_pressure;BME280_temperature;BME280_humidity;BME280_pressure;Samples;Min_cycle;Max_cycle;Signal;HPM_P1;HPM_P2
2022/05/05 00:01:28;;;;;;;16.48;8.35;;;;;;;9.65;73.79;101926.88;5074063;28;20020;-72
2022/05/05 00:03:53;;;;;;;14.57;8.88;;;;;;;9.54;73.76;101921.66;5073321;28;20035;-72
2022/05/05 00:06:18;;;;;;;14.77;8.70;;;;;;;9.45;73.88;101916.50;5073899;28;20020;-72
2022/05/05 00:08:44;;;;;;;16.90;10.10;;;;;;;9.46;74.02;101922.56;5072948;28;20024;-72
2022/05/05 00:16:37;;;;;;;18.38;9.55;;;;;;;9.44;73.93;101932.97;5073000;28;20081;-72
2022/05/05 00:19:02;;;;;;;15.18;9.43;;;;;;;9.41;75.61;101938.19;5073844;28;20032;-72
2022/05/05 00:21:28;;;;;;;15.30;9.40;;;;;;;9.28;75.71;101939.06;5073680;28;20082;-72
2022/05/05 00:23:53;;;;;;;14.60;9.73;;;;;;;9.11;76.89;101929.53;5072225;28;20028;-72
2022/05/05 00:26:18;;;;;;;17.55;9.85;;;;;;;9.10;76.93;101930.41;5073511;28;20066;-71
2022/05/05 00:28:43;;;;;;;16.52;9.07;;;;;;;9.12;77.31;101931.28;5073129;28;20358;-72
2022/05/05 00:31:09;;;;;;;14.27;9.80;;;;;;;9.03;77.64;101922.59;5072809;28;20021;-72
2022/05/05 00:33:34;;;;;;;19.27;10.02;;;;;;;8.97;77.33;101931.25;5073200;28;20063;-72
2022/05/05 00:35:59;;;;;;;16.02;9.98;;;;;;;8.87;78.13;101929.53;5073422;28;20442;-72
2022/05/05 00:38:25;;;;;;;16.05;9.00;;;;;;;8.83;78.35;101933.00;5072461;28;20036;-72
2022/05/05 00:40:50;;;;;;;18.90;10.02;;;;;;;8.83;78.75;101935.59;5072955;28;20078;-72
2022/05/05 00:43:15;;;;;;;16.58;9.63;;;;;;;8.79;78.96;101929.50;5073383;28;20052;-71
2022/05/05 00:45:41;;;;;;;18.77;10.05;;;;;;;8.78;78.43;101927.78;5072266;28;20032;-72
2022/05/05 00:48:07;;;;;;;18.58;10.23;;;;;;;8.76;78.69;101926.88;5073418;28;20066;-72
2022/05/05 00:50:34;;;;;;;15.52;9.15;;;;;;;8.76;78.64;101928.63;5072909;28;20029;-72
2022/05/05 00:53:00;;;;;;;13.98;8.68;;;;;;;8.78;78.80;101924.31;5072252;28;20021;-72
2022/05/05 00:55:25;;;;;;;15.23;9.90;;;;;;;8.80;77.95;101928.66;5073262;28;20037;-72
2022/05/05 00:57:50;;;;;;;16.08;9.60;;;;;;;8.81;78.30;101927.78;5071795;28;20131;-72
2022/05/05 01:00:16;;;;;;;17.20;10.32;;;;;;;8.86;77.87;101927.78;5073146;28;20400;-72
2022/05/05 01:02:41;;;;;;;16.17;10.18;;;;;;;8.80;78.73;101927.78;5072563;28;20480;-72
2022/05/05 01:05:07;;;;;;;16.90;9.48;;;;;;;8.78;79.22;101929.50;5072253;28;20427;-72
2022/05/05 01:07:33;;;;;;;18.67;9.65;;;;;;;8.82;79.75;101920.84;5072670;28;20029;-72
2022/05/05 01:09:58;;;;;;;18.67;10.63;;;;;;;8.92;79.16;101925.19;5072955;28;20105;-72
2022/05/05 01:12:29;;;;;;;15.10;9.82;;;;;;;8.98;78.34;101927.78;5072447;28;20028;-72
2022/05/05 01:14:54;;;;;;;18.42;9.65;;;;;;;9.05;77.88;101926.91;5072722;28;20036;-72
2022/05/05 01:17:21;;;;;;;16.55;10.00;;;;;;;9.11;77.59;101928.66;5072929;28;20028;-71
2022/05/05 01:19:47;;;;;;;15.82;9.55;;;;;;;9.10;77.97;101920.00;5071865;28;20028;-72
2022/05/05 01:22:15;;;;;;;16.20;9.98;;;;;;;9.12;78.64;101925.19;5072904;28;20107;-72
2022/05/05 01:30:08;;;;;;;17.13;9.77;;;;;;;9.03;78.35;101917.41;5073193;28;20413;-72
2022/05/05 01:32:33;;;;;;;15.82;10.30;;;;;;;9.03;78.27;101914.81;5072461;28;20020;-72
2022/05/05 01:34:59;;;;;;;17.83;9.70;;;;;;;9.01;78.25;101914.78;5072010;28;20491;-72
2022/05/05 01:37:25;;;;;;;18.48;9.93;;;;;;;9.04;78.57;101916.53;5077028;28;20032;-72
2022/05/05 01:39:50;;;;;;;18.75;9.82;;;;;;;9.07;79.40;101920.00;5076651;28;20166;-72
2022/05/05 01:42:16;;;;;;;18.65;9.73;;;;;;;9.04;79.42;101912.19;5076047;28;20446;-72
2022/05/05 01:44:41;;;;;;;16.83;10.18;;;;;;;9.06;79.33;101920.00;5076260;28;20036;-72
2022/05/05 01:47:06;;;;;;;16.67;10.02;;;;;;;9.06;80.12;101914.81;5075826;28;20039;-72
2022/05/05 01:49:32;;;;;;;16.95;10.10;;;;;;;9.04;80.42;101916.53;5076273;28;20024;-72
2022/05/05 01:51:58;;;;;;;16.55;9.88;;;;;;;8.99;80.30;101907.84;5076770;28;20036;-72
2022/05/05 01:54:23;;;;;;;16.40;9.45;;;;;;;9.04;80.66;101924.31;5075841;28;20016;-72
2022/05/05 01:56:48;;;;;;;17.92;10.18;;;;;;;9.09;79.66;101925.19;5076023;28;20048;-72
2022/05/05 01:59:14;;;;;;;18.45;9.30;;;;;;;9.14;79.57;101928.66;5076484;28;20021;-72
2022/05/05 02:01:39;;;;;;;18.58;10.13;;;;;;;9.15;80.49;101932.97;5075311;28;20027;-71
2022/05/05 02:04:04;;;;;;;22.38;10.23;;;;;;;9.12;80.43;101931.28;5076214;28;20400;-72
2022/05/05 02:06:29;;;;;;;17.77;10.15;;;;;;;9.12;80.85;101928.69;5076262;28;20025;-71
2022/05/05 02:08:57;;;;;;;17.05;9.68;;;;;;;9.16;80.53;101926.06;5075344;28;20036;-72
2022/05/05 02:11:22;;;;;;;16.35;9.80;;;;;;;9.18;80.26;101927.78;5076228;28;20036;-71
2022/05/05 02:13:47;;;;;;;14.90;10.02;;;;;;;9.20;79.86;101927.81;5075797;28;20042;-71
2022/05/05 02:16:12;;;;;;;20.00;10.30;;;;;;;9.23;80.28;101927.81;5075325;28;20021;-72
2022/05/05 02:18:38;;;;;;;20.90;11.70;;;;;;;9.23;79.98;101933.88;5075538;28;20028;-72
2022/05/05 02:21:03;;;;;;;18.05;10.23;;;;;;;9.26;80.20;101933.88;5076214;28;20027;-72
2022/05/05 02:23:28;;;;;;;17.52;11.07;;;;;;;9.29;79.80;101930.41;5075182;28;20468;-71
2022/05/05 02:25:53;;;;;;;16.77;10.18;;;;;;;9.33;80.46;101935.59;5075589;28;20031;-72
2022/05/05 02:28:19;;;;;;;21.90;10.60;;;;;;;9.28;80.15;101926.03;5075907;28;20025;-72
2022/05/05 02:30:45;;;;;;;19.50;11.75;;;;;;;9.36;79.96;101937.34;5074643;28;20444;-72
2022/05/05 02:33:10;;;;;;;22.30;11.60;;;;;;;9.29;79.82;101920.84;5075654;28;20507;-72
2022/05/05 02:35:35;;;;;;;16.75;10.27;;;;;;;9.37;80.52;101926.03;5075610;28;20048;-72
2022/05/05 02:40:45;;;;;;;21.85;11.68;;;;;;;9.48;80.25;101934.72;5075849;28;20044;-71
2022/05/05 02:43:11;;;;;;;20.73;10.85;;;;;;;9.55;80.14;101928.63;5075588;28;20021;-71
2022/05/05 02:45:37;;;;;;;27.77;11.93;;;;;;;9.56;79.93;101919.06;5074481;28;20017;-72
2022/05/05 02:48:04;;;;;;;22.50;10.38;;;;;;;9.60;79.52;101929.47;5075560;28;20024;-72
2022/05/05 02:50:29;;;;;;;20.80;10.93;;;;;;;9.57;80.12;101933.81;5074831;28;20029;-72
2022/05/05 02:52:54;;;;;;;21.25;10.90;;;;;;;9.54;79.58;101937.28;5074984;28;20028;-72
2022/05/05 02:55:20;;;;;;;22.75;11.65;;;;;;;9.55;79.63;101933.84;5075581;28;20021;-72
2022/05/05 02:57:45;;;;;;;20.90;10.55;;;;;;;9.60;80.22;101939.03;5074193;28;20204;-72
2022/05/05 03:00:11;;;;;;;20.20;10.98;;;;;;;9.64;79.54;101934.66;5075169;28;20545;-72
2022/05/05 03:02:37;;;;;;;29.25;10.77;;;;;;;9.63;79.07;101927.75;5075076;28;20380;-72
2022/05/05 03:05:03;;;;;;;30.13;11.50;;;;;;;9.62;79.18;101926.88;5074177;28;20052;-72
2022/05/05 03:07:28;;;;;;;29.77;11.45;;;;;;;9.58;79.45;101931.22;5075293;28;20029;-72
2022/05/05 03:09:53;;;;;;;32.38;11.60;;;;;;;9.50;80.36;101929.50;5074875;28;20020;-72
2022/05/05 03:12:19;;;;;;;20.40;10.90;;;;;;;9.41;80.08;101927.75;5074266;28;20024;-72
2022/05/05 03:14:46;;;;;;;25.77;11.52;;;;;;;9.42;80.51;101929.53;5074717;28;20025;-72
2022/05/05 03:17:12;;;;;;;31.60;11.23;;;;;;;9.37;79.40;101933.84;5075222;28;20043;-72
2022/05/05 03:19:37;;;;;;;24.60;10.38;;;;;;;9.33;80.28;101925.19;5073951;28;20017;-72
2022/05/05 03:22:03;;;;;;;26.40;10.80;;;;;;;9.36;79.79;101934.72;5075002;28;20111;-72
2022/05/05 03:24:28;;;;;;;30.38;11.60;;;;;;;9.41;80.10;101921.69;5074746;28;20472;-72
2022/05/05 03:26:53;;;;;;;30.05;10.93;;;;;;;9.40;80.25;101931.25;5073731;28;20027;-72
2022/05/05 03:29:19;;;;;;;31.30;11.48;;;;;;;9.40;79.83;101933.84;5074904;28;20357;-71
2022/05/05 03:31:44;;;;;;;30.92;11.57;;;;;;;9.41;80.94;101937.31;5074347;28;20025;-72
2022/05/05 03:34:09;;;;;;;32.22;12.43;;;;;;;9.38;80.77;101932.97;5074036;28;20090;-72
2022/05/05 03:36:35;;;;;;;26.88;11.23;;;;;;;9.41;80.40;101934.72;5074159;28;20039;-72
2022/05/05 03:39:00;;;;;;;31.23;11.00;;;;;;;9.44;80.38;101937.31;5074709;28;20052;-72
2022/05/05 03:41:25;;;;;;;34.22;10.82;;;;;;;9.48;79.83;101939.94;5073722;28;20025;-72
2022/05/05 03:43:52;;;;;;;30.73;11.18;;;;;;;9.54;80.71;101941.63;5074209;28;20033;-72
2022/05/05 03:46:17;;;;;;;23.60;11.25;;;;;;;9.49;80.80;101939.03;5074477;28;20040;-72
2022/05/05 03:48:42;;;;;;;31.33;11.48;;;;;;;9.52;81.12;101940.78;5073398;28;20126;-72
2022/05/05 03:51:08;;;;;;;31.92;12.18;;;;;;;9.38;81.09;101926.06;5074360;28;20028;-72
2022/05/05 03:53:33;;;;;;;27.27;12.32;;;;;;;9.47;80.66;101952.94;5073880;28;20028;-72
2022/05/05 03:55:58;;;;;;;23.35;11.05;;;;;;;9.48;80.14;101949.44;5073431;28;20169;-72
2022/05/05 03:58:25;;;;;;;24.40;12.18;;;;;;;9.52;79.91;101944.25;5073537;28;20085;-72
2022/05/05 04:00:51;;;;;;;29.55;12.27;;;;;;;9.58;80.56;101951.16;5072980;28;20025;-72
2022/05/05 04:03:31;;;;;;;23.38;11.52;;;;;;;9.62;79.48;101952.91;5073910;28;20036;-72
2022/05/05 04:06:01;;;;;;;21.55;11.52;;;;;;;9.63;80.14;101953.78;5073926;28;20469;-72
2022/05/05 04:08:27;;;;;;;23.98;12.07;;;;;;;9.69;80.45;101958.97;5073237;28;20028;-72
2022/05/05 04:10:53;;;;;;;23.17;11.73;;;;;;;9.71;80.17;101958.09;5073544;28;20025;-72
2022/05/05 04:13:19;;;;;;;23.75;12.18;;;;;;;9.67;80.76;101963.31;5074107;28;20048;-72
2022/05/05 04:15:44;;;;;;;25.75;11.50;;;;;;;9.60;81.51;101954.63;5072644;28;20435;-72
2022/05/05 04:18:10;;;;;;;20.77;11.75;;;;;;;9.61;81.57;101958.97;5074140;28;20050;-71
2022/05/05 04:20:35;;;;;;;25.25;11.85;;;;;;;9.64;80.78;101966.78;5073447;28;20056;-71
2022/05/05 04:23:00;;;;;;;25.33;12.02;;;;;;;9.72;81.02;101969.38;5072800;28;20024;-72
2022/05/05 04:25:25;;;;;;;25.15;12.05;;;;;;;9.71;80.81;101962.41;5073437;28;20476;-72
2022/05/05 04:27:51;;;;;;;20.90;12.40;;;;;;;9.76;80.55;101966.75;5073110;28;20081;-71
2022/05/05 04:30:16;;;;;;;26.80;12.25;;;;;;;9.81;80.64;101970.25;5072840;28;20029;-71
2022/05/05 04:32:43;;;;;;;21.58;11.90;;;;;;;9.83;80.53;101978.03;5073435;28;20479;-72
2022/05/05 04:35:09;;;;;;;25.40;11.32;;;;;;;9.81;81.63;101974.59;5073387;28;20456;-72
2022/05/05 04:37:34;;;;;;;26.60;11.90;;;;;;;9.79;81.43;101965.91;5072174;28;20106;-72
2022/05/05 04:39:59;;;;;;;26.77;12.38;;;;;;;9.82;81.35;101971.97;5073282;28;20035;-72
2022/05/05 04:42:28;;;;;;;22.02;12.30;;;;;;;9.83;81.29;101973.69;5073288;28;20078;-72
2022/05/05 04:44:53;;;;;;;25.10;12.20;;;;;;;9.87;80.78;101979.75;5072223;28;20033;-72
2022/05/05 04:47:19;;;;;;;23.65;10.82;;;;;;;9.89;80.94;101977.16;5073356;28;20029;-72
2022/05/05 04:49:44;;;;;;;21.75;12.13;;;;;;;9.90;81.81;101973.69;5072798;28;20060;-72
2022/05/05 04:52:10;;;;;;;20.75;11.70;;;;;;;9.89;81.94;101980.63;5072421;28;20024;-72
2022/05/05 04:54:35;;;;;;;25.63;12.05;;;;;;;9.88;81.38;101986.72;5072980;28;20039;-72
2022/05/05 04:57:00;;;;;;;25.58;12.07;;;;;;;9.86;82.06;101991.06;5072260;28;20049;-72
2022/05/05 04:59:26;;;;;;;28.80;13.02;;;;;;;9.81;82.73;101995.41;5073035;28;20028;-72
2022/05/05 05:01:51;;;;;;;26.50;12.05;;;;;;;9.75;83.02;101995.44;5072933;28;20024;-72
2022/05/05 05:04:17;;;;;;;24.77;11.85;;;;;;;9.70;82.49;101994.56;5072278;28;20036;-72
2022/05/05 05:06:42;;;;;;;21.10;11.15;;;;;;;9.68;81.91;101998.88;5072812;28;20036;-72
2022/05/05 05:09:07;;;;;;;21.58;12.55;;;;;;;9.67;82.46;101997.16;5072894;28;20036;-72
2022/05/05 05:11:33;;;;;;;22.25;12.05;;;;;;;9.61;82.15;101991.09;5070890;28;20020;-72
2022/05/05 05:13:59;;;;;;;22.52;11.90;;;;;;;9.61;81.85;102001.53;5073058;28;20043;-72
2022/05/05 05:16:25;;;;;;;20.02;12.23;;;;;;;9.55;81.97;102000.66;5073148;28;20031;-71
2022/05/05 05:18:53;;;;;;;22.80;11.95;;;;;;;9.54;82.88;102007.56;5071965;28;20392;-72
2022/05/05 05:21:18;;;;;;;24.85;12.25;;;;;;;9.52;82.91;102011.06;5072929;28;20033;-72
2022/05/05 05:23:44;;;;;;;25.48;12.15;;;;;;;9.47;83.34;102005.84;5072375;28;20040;-72
2022/05/05 05:26:09;;;;;;;26.55;12.77;;;;;;;9.51;82.80;102015.38;5071927;28;20108;-72
2022/05/05 05:28:34;;;;;;;30.48;13.82;;;;;;;9.48;83.60;102012.81;5072601;28;20408;-72
2022/05/05 05:30:59;;;;;;;26.42;12.75;;;;;;;9.46;83.93;102014.53;5072870;28;20092;-72
2022/05/05 05:33:25;;;;;;;26.38;12.88;;;;;;;9.48;83.33;102019.72;5071978;28;20077;-72
2022/05/05 05:35:50;;;;;;;29.92;12.40;;;;;;;9.51;83.64;102023.19;5072575;28;20024;-72
2022/05/05 05:38:19;;;;;;;24.67;12.63;;;;;;;9.54;83.68;102017.13;5072716;28;20062;-72
2022/05/05 05:40:44;;;;;;;24.10;12.82;;;;;;;9.57;83.96;102018.00;5071393;28;20029;-72
2022/05/05 05:43:09;;;;;;;26.77;12.45;;;;;;;9.65;84.14;102017.16;5072611;28;20078;-72
2022/05/05 05:45:34;;;;;;;26.33;12.68;;;;;;;9.70;84.19;102023.19;5072384;28;20029;-71
2022/05/05 05:48:00;;;;;;;29.77;13.30;;;;;;;9.75;84.08;102026.69;5071886;28;20016;-72
2022/05/05 05:50:27;;;;;;;27.75;13.30;;;;;;;9.79;83.82;102026.66;5072675;28;20047;-72
2022/05/05 05:52:52;;;;;;;26.65;13.48;;;;;;;9.84;83.44;102021.44;5072341;28;20506;-72
2022/05/05 05:55:18;;;;;;;25.35;13.48;;;;;;;9.94;83.29;102025.78;5071663;28;20032;-72
2022/05/05 05:57:43;;;;;;;29.58;12.50;;;;;;;10.04;83.14;102031.84;5072033;28;20049;-72
2022/05/05 06:00:09;;;;;;;26.25;13.23;;;;;;;10.12;83.82;102031.81;5072602;28;20124;-72
2022/05/05 06:05:18;;;;;;;;;;;;;;;10.32;81.29;102040.47;5072892;28;20098;-72
2022/05/05 06:07:44;;;;;;;24.02;13.50;;;;;;;10.39;82.08;102042.16;5071335;28;20296;-72
2022/05/05 06:10:10;;;;;;;27.40;13.82;;;;;;;10.52;82.14;102043.84;5072527;28;20063;-72
2022/05/05 06:12:35;;;;;;;35.00;14.63;;;;;;;10.62;81.80;102041.22;5072194;28;20032;-72
2022/05/05 06:15:00;;;;;;;29.92;14.55;;;;;;;10.67;80.01;102040.31;5071439;28;20024;-72
2022/05/05 06:17:25;;;;;;;29.95;15.55;;;;;;;10.77;78.70;102042.00;5072325;28;20070;-71
2022/05/05 06:19:51;;;;;;;26.88;14.18;;;;;;;10.77;78.86;102033.31;5071992;28;20048;-72
2022/05/05 06:22:16;;;;;;;24.17;14.18;;;;;;;10.85;79.59;102036.75;5073451;28;20035;-72
2022/05/05 06:24:41;;;;;;;21.77;12.52;;;;;;;10.82;75.01;102041.13;5075777;28;20036;-72
2022/05/05 06:27:07;;;;;;;23.80;12.07;;;;;;;10.90;74.05;102045.41;5076066;28;20024;-72
2022/05/05 06:29:32;;;;;;;25.90;12.55;;;;;;;10.93;74.02;102045.41;5074840;28;20033;-72
2022/05/05 06:31:57;;;;;;;20.83;12.60;;;;;;;11.05;72.94;102046.19;5075620;28;20032;-72
2022/05/05 06:34:22;;;;;;;28.00;13.02;;;;;;;11.16;75.62;102042.66;5075886;28;20488;-72
2022/05/05 06:36:47;;;;;;;21.02;11.73;;;;;;;11.28;71.39;102044.31;5074673;28;20025;-72
2022/05/05 06:39:13;;;;;;;22.42;12.27;;;;;;;11.38;71.82;102053.81;5075581;28;20082;-72
2022/05/05 06:41:38;;;;;;;24.02;12.48;;;;;;;11.54;70.08;102046.72;5075502;28;20499;-72
2022/05/05 06:44:04;;;;;;;24.88;13.60;;;;;;;11.63;70.44;102035.31;5074713;28;20040;-72
2022/05/05 06:46:30;;;;;;;23.52;12.65;;;;;;;11.79;67.82;102049.97;5075627;28;20028;-72
2022/05/05 06:48:55;;;;;;;33.45;14.73;;;;;;;11.92;70.16;102049.00;5075433;28;20099;-72
2022/05/05 06:51:20;;;;;;;30.10;15.23;;;;;;;12.05;70.64;102051.50;5074590;28;20043;-72
2022/05/05 06:53:45;;;;;;;31.90;17.13;;;;;;;12.09;70.24;102051.44;5075211;28;20039;-72
2022/05/05 06:56:11;;;;;;;29.05;16.45;;;;;;;12.25;72.46;102054.78;5075133;28;20381;-72
2022/05/05 06:58:36;;;;;;;37.92;20.25;;;;;;;12.30;70.25;102046.91;5074299;28;20361;-72
2022/05/05 07:03:45;;;;;;;;;;;;;;;12.45;71.04;102062.38;5074873;28;20161;-72
2022/05/05 07:06:10;;;;;;;47.45;26.45;;;;;;;12.44;71.94;102057.19;5075063;28;19923;-72
2022/05/05 07:11:21;;;;;;;51.35;29.38;;;;;;;12.52;73.23;102071.03;5074711;28;20040;-72
2022/05/05 07:13:46;;;;;;;53.05;28.67;;;;;;;12.50;71.90;102063.22;5074735;28;20021;-72
2022/05/05 07:16:12;;;;;;;52.45;28.17;;;;;;;12.61;72.20;102076.16;5074968;28;20499;-72
2022/05/05 07:18:37;;;;;;;55.30;28.25;;;;;;;12.78;71.76;102074.19;5073748;28;20028;-72
2022/05/05 07:21:02;;;;;;;58.15;29.80;;;;;;;13.02;70.25;102077.38;5075005;28;20035;-72
2022/05/05 07:23:28;;;;;;;51.45;29.90;;;;;;;13.28;70.25;102080.50;5074946;28;20029;-72
2022/05/05 07:25:53;;;;;;;58.22;30.25;;;;;;;13.51;69.24;102079.28;5073895;28;20098;-72
2022/05/05 07:28:18;;;;;;;52.88;28.75;;;;;;;13.74;68.99;102076.28;5074992;28;20020;-72
2022/05/05 07:30:44;;;;;;;49.60;29.10;;;;;;;13.90;69.41;102084.75;5074256;28;20025;-72
2022/05/05 07:33:10;;;;;;;57.50;34.00;;;;;;;14.00;69.14;102083.72;5072822;28;20031;-72
2022/05/05 07:35:38;;;;;;;65.03;34.97;;;;;;;14.06;66.38;102086.22;5074526;28;20052;-72
2022/05/05 07:38:03;;;;;;;58.38;34.58;;;;;;;14.08;66.99;102081.78;5074735;28;20032;-72
2022/05/05 07:40:28;;;;;;;55.28;32.88;;;;;;;14.13;66.20;102090.47;5073920;28;20376;-72
2022/05/05 07:42:54;;;;;;;52.10;30.08;;;;;;;14.15;64.80;102088.66;5074440;28;20039;-72
2022/05/05 07:45:19;;;;;;;56.92;31.02;;;;;;;14.22;65.91;102094.66;5074400;28;20031;-72
2022/05/05 07:47:45;;;;;;;50.22;30.35;;;;;;;14.32;65.09;102090.09;5073168;28;20063;-72
2022/05/05 07:50:10;;;;;;;54.58;32.40;;;;;;;14.39;65.57;102096.97;5074498;28;20081;-72
2022/05/05 07:52:36;;;;;;;56.22;31.05;;;;;;;14.60;66.90;102095.72;5074106;28;20412;-72
2022/05/05 07:55:02;;;;;;;51.95;30.75;;;;;;;14.80;65.12;102095.28;5073424;28;20111;-72
2022/05/05 07:57:27;;;;;;;54.85;32.15;;;;;;;15.03;64.49;102100.91;5073902;28;20098;-72
2022/05/05 07:59:52;;;;;;;57.45;32.67;;;;;;;15.22;63.25;102094.34;5073086;28;20136;-72
2022/05/05 08:02:18;;;;;;;55.97;32.33;;;;;;;15.39;61.93;102082.56;5073993;28;20020;-72
2022/05/05 08:04:44;;;;;;;51.60;30.80;;;;;;;15.84;63.29;102095.53;5073730;28;20025;-72
2022/05/05 08:07:10;;;;;;;46.83;28.55;;;;;;;16.07;61.90;102108.94;5073055;28;20020;-72
2022/05/05 08:09:36;;;;;;;51.80;29.52;;;;;;;16.43;61.70;102100.09;5073576;28;20044;-72
2022/05/05 08:12:02;;;;;;;44.90;27.35;;;;;;;16.94;57.27;102102.16;5074039;28;20096;-72
2022/05/05 08:14:28;;;;;;;43.92;27.40;;;;;;;17.38;56.00;102097.28;5073117;28;20038;-72
2022/05/05 08:16:55;;;;;;;43.83;24.70;;;;;;;17.68;55.01;102098.06;5073608;28;20024;-72
2022/05/05 08:19:21;;;;;;;45.60;26.33;;;;;;;17.66;53.25;102092.84;5073700;28;20368;-72
2022/05/05 08:21:46;;;;;;;45.38;27.55;;;;;;;17.73;55.35;102094.38;5072753;28;20101;-72
2022/05/05 08:29:40;;;;;;;40.63;25.90;;;;;;;17.85;53.32;102098.38;5073010;28;20043;-72
2022/05/05 08:32:06;;;;;;;43.83;27.23;;;;;;;17.78;54.20;102105.63;5073688;28;20396;-72
2022/05/05 08:34:31;;;;;;;46.13;28.48;;;;;;;17.72;53.77;102097.94;5073308;28;20403;-73
2022/05/05 08:36:56;;;;;;;46.40;29.42;;;;;;;17.72;53.95;102112.84;5072704;28;20548;-72
2022/05/05 08:39:21;;;;;;;52.47;28.42;;;;;;;17.67;54.46;102110.38;5073256;28;20058;-72
2022/05/05 08:41:47;;;;;;;153.82;37.78;;;;;;;17.52;53.53;102113.50;5073055;28;20107;-72
2022/05/05 08:44:12;;;;;;;45.58;29.00;;;;;;;17.57;54.04;102113.38;5072546;28;20035;-72
2022/05/05 08:46:39;;;;;;;44.45;29.60;;;;;;;17.49;51.72;102116.25;5072851;28;20034;-72
2022/05/05 08:49:06;;;;;;;46.15;29.75;;;;;;;17.50;54.09;102118.84;5072633;28;20077;-72
2022/05/05 08:51:42;;;;;;;49.00;29.70;;;;;;;17.57;54.84;102121.28;5072943;28;20103;-72
2022/05/05 08:54:12;;;;;;;271.00;50.75;;;;;;;17.47;54.98;102118.94;5073137;28;20025;-72
2022/05/05 08:56:39;;;;;;;50.33;28.70;;;;;;;17.28;55.18;102123.94;5071722;28;20067;-72
2022/05/05 08:59:07;;;;;;;99.10;29.50;;;;;;;17.21;54.79;102126.81;5072944;28;20460;-72
2022/05/05 09:01:38;;;;;;;45.15;27.50;;;;;;;17.14;55.05;102120.88;5072874;28;20032;-72
2022/05/05 09:04:05;;;;;;;46.53;29.35;;;;;;;17.03;55.29;102129.06;5072119;28;20111;-72
2022/05/05 09:06:44;;;;;;;48.28;28.65;;;;;;;16.95;55.12;102131.09;5072764;28;20536;-72
2022/05/05 09:09:23;;;;;;;44.50;28.73;;;;;;;16.83;56.44;102127.03;5072929;28;20141;-73
2022/05/05 09:12:07;;;;;;;46.50;29.75;;;;;;;16.79;56.29;102142.97;5071986;28;20028;-72
2022/05/05 09:14:37;;;;;;;51.70;28.90;;;;;;;16.78;56.62;102134.22;5072673;28;20025;-72
2022/05/05 09:17:04;;;;;;;45.25;29.73;;;;;;;16.78;56.19;102138.63;5072870;28;20048;-72
2022/05/05 09:19:34;;;;;;;49.28;29.40;;;;;;;16.74;56.70;102140.47;5071981;28;20056;-72
2022/05/05 09:22:02;;;;;;;48.75;29.80;;;;;;;16.78;56.71;102139.50;5072988;28;20025;-72
2022/05/05 09:24:36;;;;;;;49.05;29.38;;;;;;;16.87;56.65;102135.72;5071731;28;20567;-72
2022/05/05 09:27:14;;;;;;;48.13;30.40;;;;;;;16.84;56.67;102141.09;5072960;28;20099;-72
2022/05/05 09:29:39;;;;;;;48.58;28.58;;;;;;;16.87;57.09;102148.88;5072391;28;20032;-72
2022/05/05 09:32:12;;;;;;;43.80;28.30;;;;;;;16.99;57.01;102142.41;5072033;28;20379;-72
2022/05/05 09:34:38;;;;;;;58.70;30.45;;;;;;;17.07;56.09;102151.81;5072331;28;20032;-72
2022/05/05 09:37:18;;;;;;;60.13;30.88;;;;;;;16.93;55.28;102147.84;5072839;28;20085;-72
2022/05/05 09:39:43;;;;;;;54.42;30.33;;;;;;;16.93;57.04;102155.75;5071545;28;20031;-72
2022/05/05 09:42:08;;;;;;;44.10;29.35;;;;;;;17.11;56.33;102149.09;5072620;28;20091;-72
2022/05/05 09:45:37;;;;;;;64.32;30.85;;;;;;;17.52;56.54;102153.06;5072149;28;20043;-72
2022/05/05 09:48:09;;;;;;;47.53;29.88;;;;;;;18.02;54.31;102153.25;4991283;28;20026;-72
2022/05/05 09:50:40;;;;;;;50.58;31.73;;;;;;;18.15;52.89;102154.53;5063525;28;20037;-72
2022/05/05 09:58:41;;;;;;;52.50;30.75;;;;;;;18.65;53.02;102157.16;5076420;28;20044;-72
2022/05/05 10:01:13;;;;;;;48.42;31.65;;;;;;;18.73;51.37;102158.69;5075447;28;20384;-72
2022/05/05 10:04:00;;;;;;;52.28;30.73;;;;;;;18.94;53.48;102164.03;5076166;28;20036;-72
2022/05/05 10:06:36;;;;;;;49.72;29.92;;;;;;;19.32;52.89;102160.84;5075585;28;20032;-72
2022/05/05 10:09:08;;;;;;;49.53;32.45;;;;;;;19.47;50.59;102160.25;5076237;28;20461;-72
2022/05/05 10:11:34;;;;;;;48.80;32.72;;;;;;;19.45;50.61;102159.44;5075735;28;20540;-72
2022/05/05 10:14:02;;;;;;;49.58;31.45;;;;;;;19.25;49.26;102164.66;5075476;28;20032;-72
2022/05/05 10:16:30;;;;;;;52.40;32.45;;;;;;;19.19;49.00;102160.44;5076254;28;20028;-72
2022/05/05 10:18:56;;;;;;;55.92;32.60;;;;;;;19.31;50.37;102167.06;5076283;28;20099;-72
2022/05/05 10:21:28;;;;;;;45.85;31.50;;;;;;;19.52;49.23;102163.56;5075326;28;20123;-72
2022/05/05 10:24:03;;;;;;;50.92;31.42;;;;;;;19.83;50.64;102159.72;5075651;28;20042;-72
2022/05/05 10:26:29;;;;;;;50.35;30.55;;;;;;;19.92;49.92;102151.38;5075903;28;20506;-73
2022/05/05 10:28:54;;;;;;;46.08;31.30;;;;;;;20.10;48.54;102149.72;5074704;28;20054;-72
2022/05/05 10:31:32;;;;;;;45.50;30.95;;;;;;;20.25;47.95;102153.53;5075989;28;20031;-72
2022/05/05 10:34:09;;;;;;;46.92;31.92;;;;;;;20.24;48.06;102157.06;5075719;28;20099;-72
2022/05/05 10:36:36;;;;;;;45.70;31.55;;;;;;;20.41;45.85;102159.03;5074626;28;20060;-72
2022/05/05 10:39:22;;;;;;;47.03;32.45;;;;;;;20.49;48.27;102157.72;5075567;28;20464;-72
2022/05/05 10:41:51;;;;;;;45.47;30.38;;;;;;;20.48;46.65;102160.47;5074679;28;20033;-73
2022/05/05 10:44:16;;;;;;;48.90;30.88;;;;;;;20.65;45.51;102159.75;5075564;28;20029;-73
2022/05/05 10:46:50;;;;;;;45.77;31.53;;;;;;;20.57;45.51;102160.09;5075290;28;20090;-73
2022/05/05 10:49:33;;;;;;;48.92;32.20;;;;;;;20.68;47.81;102157.81;5074786;28;20279;-73
2022/05/05 10:52:10;;;;;;;47.78;32.58;;;;;;;20.74;45.50;102152.25;5075634;28;20109;-72
2022/05/05 10:54:46;;;;;;;44.03;31.35;;;;;;;20.69;45.11;102159.53;5075187;28;20028;-73
2022/05/05 10:57:26;;;;;;;48.17;31.98;;;;;;;20.93;46.15;102165.50;5074434;28;20056;-73
2022/05/05 11:00:08;;;;;;;44.92;30.92;;;;;;;21.11;45.73;102157.63;5074910;28;20353;-73
2022/05/05 11:02:34;;;;;;;46.50;32.15;;;;;;;21.08;43.86;102158.63;5074998;28;20044;-72
2022/05/05 11:05:38;;;;;;;43.25;31.58;;;;;;;21.24;45.81;102158.78;5074525;28;20078;-73
2022/05/05 11:08:25;;;;;;;;;;;;;;;21.38;46.26;102159.00;5016397;28;20040;-73
2022/05/05 11:13:37;;;;;;;41.60;30.50;;;;;;;20.81;43.87;102158.13;5075170;28;20098;-72
2022/05/05 11:22:19;;;;;;;42.60;29.90;;;;;;;21.25;45.60;102156.06;5075250;28;20039;-73
2022/05/05 11:24:47;;;;;;;43.65;29.92;;;;;;;21.43;44.04;102161.44;5073824;28;20036;-73
2022/05/05 11:27:14;;;;;;;43.40;30.70;;;;;;;21.65;41.98;102145.34;5074612;28;20035;-73
2022/05/05 11:29:39;;;;;;;41.25;29.10;;;;;;;22.15;44.35;102144.56;5074513;28;20059;-73
2022/05/05 11:32:05;;;;;;;38.53;28.23;;;;;;;22.47;41.94;102150.03;5073916;28;20117;-73
2022/05/05 11:34:39;;;;;;;42.80;28.58;;;;;;;22.53;40.86;102153.25;5073743;28;20397;-73
2022/05/05 11:37:07;;;;;;;44.63;30.73;;;;;;;22.01;40.03;102149.72;5074541;28;20040;-72
2022/05/05 11:39:34;;;;;;;40.63;28.88;;;;;;;21.99;41.61;102149.81;5073747;28;20056;-73
2022/05/05 11:42:07;;;;;;;40.45;28.95;;;;;;;22.09;42.55;102144.88;5074497;28;20024;-73
2022/05/05 11:44:37;;;;;;;39.28;29.95;;;;;;;22.32;41.37;102151.69;5074180;28;20486;-73
2022/05/05 11:47:14;;;;;;;44.80;29.02;;;;;;;22.55;42.22;102151.34;5073638;28;20099;-73
2022/05/05 11:49:43;;;;;;;40.40;31.27;;;;;;;22.39;40.11;102148.63;5073965;28;20476;-73
2022/05/05 11:52:10;;;;;;;42.40;29.25;;;;;;;22.62;42.26;102143.91;5073621;28;20039;-73
2022/05/05 11:54:36;;;;;;;37.88;29.30;;;;;;;23.34;39.41;102150.59;5074050;28;20032;-73
2022/05/05 11:57:01;;;;;;;39.88;28.52;;;;;;;23.15;38.62;102142.78;5074120;28;20489;-73